sensor_id;sensor_type;location;lat;lon;timestamp;pressure;altitude;pressure_sealevel;temperature;humidity
14253;BME280;7210;51.502;10.722;2023-04-07T00:01:19;99936.34;;;1.20;86.22
14253;BME280;7210;51.502;10.722;2023-04-07T00:03:47;99925.25;;;1.18;86.58
14253;BME280;7210;51.502;10.722;2023-04-07T00:06:14;99914.19;;;1.16;86.41
14253;BME280;7210;51.502;10.722;2023-04-07T00:08:41;99903.63;;;1.10;86.21
14253;BME280;7210;51.502;10.722;2023-04-07T00:11:09;99889.75;;;1.01;86.64
14253;BME280;7210;51.502;10.722;2023-04-07T00:13:38;99881.91;;;0.93;86.17
14253;BME280;7210;51.502;10.722;2023-04-07T00:16:05;99882.03;;;0.84;87.01
14253;BME280;7210;51.502;10.722;2023-04-07T00:18:32;99873.72;;;0.72;87.24
14253;BME280;7210;51.502;10.722;2023-04-07T00:20:59;99864.91;;;0.65;87.66
14253;BME280;7210;51.502;10.722;2023-04-07T00:23:27;99861.34;;;0.58;87.46
14253;BME280;7210;51.502;10.722;2023-04-07T00:25:54;99879.84;;;0.55;88.33
14253;BME280;7210;51.502;10.722;2023-04-07T00:28:21;99888.97;;;0.59;88.54
14253;BME280;7210;51.502;10.722;2023-04-07T00:30:50;99885.03;;;0.55;88.58
14253;BME280;7210;51.502;10.722;2023-04-07T00:33:17;99881.41;;;0.48;89.20
14253;BME280;7210;51.502;10.722;2023-04-07T00:35:44;99883.03;;;0.49;89.64
14253;BME280;7210;51.502;10.722;2023-04-07T00:38:12;99883.88;;;0.50;89.74
14253;BME280;7210;51.502;10.722;2023-04-07T00:40:39;99871.84;;;0.49;90.21
14253;BME280;7210;51.502;10.722;2023-04-07T00:43:06;99852.63;;;0.42;90.44
14253;BME280;7210;51.502;10.722;2023-04-07T00:45:35;99850.16;;;0.32;90.51
14253;BME280;7210;51.502;10.722;2023-04-07T00:48:05;99841.19;;;0.27;90.65
14253;BME280;7210;51.502;10.722;2023-04-07T00:50:33;99835.16;;;0.26;90.71
14253;BME280;7210;51.502;10.722;2023-04-07T00:53:00;99834.88;;;0.29;91.04
14253;BME280;7210;51.502;10.722;2023-04-07T00:55:28;99831.63;;;0.27;90.61
14253;BME280;7210;51.502;10.722;2023-04-07T00:57:55;99819.06;;;0.23;91.23
14253;BME280;7210;51.502;10.722;2023-04-07T01:00:22;99815.31;;;0.17;91.00
14253;BME280;7210;51.502;10.722;2023-04-07T01:02:57;99807.19;;;0.12;91.61
14253;BME280;7210;51.502;10.722;2023-04-07T01:05:37;99806.88;;;0.15;92.02
14253;BME280;7210;51.502;10.722;2023-04-07T01:08:16;99785.16;;;-0.01;91.80
14253;BME280;7210;51.502;10.722;2023-04-07T01:10:52;99789.25;;;0.01;92.18
14253;BME280;7210;51.502;10.722;2023-04-07T01:13:30;99790.22;;;0.00;92.33
14253;BME280;7210;51.502;10.722;2023-04-07T01:16:14;99790.88;;;0.02;92.80
14253;BME280;7210;51.502;10.722;2023-04-07T01:18:53;99774.63;;;0.00;92.63
14253;BME280;7210;51.502;10.722;2023-04-07T01:21:26;99785.72;;;0.10;93.29
14253;BME280;7210;51.502;10.722;2023-04-07T01:24:19;99780.97;;;0.06;93.28
14253;BME280;7210;51.502;10.722;2023-04-07T01:26:50;99770.41;;;-0.01;93.10
14253;BME280;7210;51.502;10.722;2023-04-07T01:29:33;99764.19;;;-0.08;93.00
14253;BME280;7210;51.502;10.722;2023-04-07T01:32:04;99758.00;;;-0.14;93.45
14253;BME280;7210;51.502;10.722;2023-04-07T01:34:34;99753.41;;;-0.20;93.52
14253;BME280;7210;51.502;10.722;2023-04-07T01:37:03;99747.22;;;-0.27;93.88
14253;BME280;7210;51.502;10.722;2023-04-07T01:39:33;99755.34;;;-0.22;93.66
14253;BME280;7210;51.502;10.722;2023-04-07T01:42:02;99766.09;;;-0.17;94.40
14253;BME280;7210;51.502;10.722;2023-04-07T01:44:33;99760.56;;;-0.22;94.94
14253;BME280;7210;51.502;10.722;2023-04-07T01:47:01;99752.41;;;-0.27;95.00
14253;BME280;7210;51.502;10.722;2023-04-07T01:49:30;99742.66;;;-0.33;94.93
14253;BME280;7210;51.502;10.722;2023-04-07T01:51:59;99745.72;;;-0.38;95.52
14253;BME280;7210;51.502;10.722;2023-04-07T01:54:28;99745.03;;;-0.40;96.02
14253;BME280;7210;51.502;10.722;2023-04-07T01:56:55;99748.44;;;-0.39;95.81
14253;BME280;7210;51.502;10.722;2023-04-07T01:59:22;99761.47;;;-0.31;96.05
14253;BME280;7210;51.502;10.722;2023-04-07T02:01:51;99753.31;;;-0.36;96.29
14253;BME280;7210;51.502;10.722;2023-04-07T02:04:26;99744.22;;;-0.40;95.61
14253;BME280;7210;51.502;10.722;2023-04-07T02:07:02;99741.63;;;-0.40;96.52
14253;BME280;7210;51.502;10.722;2023-04-07T02:09:40;99737.41;;;-0.41;96.77
14253;BME280;7210;51.502;10.722;2023-04-07T02:15:00;99734.44;;;-0.46;96.90
14253;BME280;7210;51.502;10.722;2023-04-07T02:17:33;99729.25;;;-0.46;97.83
14253;BME280;7210;51.502;10.722;2023-04-07T02:20:05;99734.13;;;-0.43;97.66
14253;BME280;7210;51.502;10.722;2023-04-07T02:22:32;99721.47;;;-0.46;98.02
14253;BME280;7210;51.502;10.722;2023-04-07T02:25:00;99724.38;;;-0.49;98.47
14253;BME280;7210;51.502;10.722;2023-04-07T02:27:27;99729.91;;;-0.44;98.21
14253;BME280;7210;51.502;10.722;2023-04-07T02:29:55;99721.47;;;-0.46;98.23
14253;BME280;7210;51.502;10.722;2023-04-07T02:32:22;99702.28;;;-0.53;98.21
14253;BME280;7210;51.502;10.722;2023-04-07T02:34:51;99707.94;;;-0.58;98.47
14253;BME280;7210;51.502;10.722;2023-04-07T02:37:18;99702.25;;;-0.61;98.30
14253;BME280;7210;51.502;10.722;2023-04-07T02:39:45;99699.28;;;-0.66;98.65
14253;BME280;7210;51.502;10.722;2023-04-07T02:42:12;99693.91;;;-0.73;98.13
14253;BME280;7210;51.502;10.722;2023-04-07T02:44:40;99693.38;;;-0.76;98.21
14253;BME280;7210;51.502;10.722;2023-04-07T02:47:08;99692.34;;;-0.83;98.73
14253;BME280;7210;51.502;10.722;2023-04-07T02:49:36;99689.13;;;-0.85;98.78
14253;BME280;7210;51.502;10.722;2023-04-07T02:52:06;99685.88;;;-0.87;99.04
14253;BME280;7210;51.502;10.722;2023-04-07T02:54:34;99686.97;;;-0.90;99.48
14253;BME280;7210;51.502;10.722;2023-04-07T02:57:02;99691.66;;;-0.93;99.11
14253;BME280;7210;51.502;10.722;2023-04-07T02:59:29;99689.38;;;-0.96;98.96
14253;BME280;7210;51.502;10.722;2023-04-07T03:01:56;99688.84;;;-1.00;99.13
14253;BME280;7210;51.502;10.722;2023-04-07T03:04:24;99693.53;;;-1.03;99.17
14253;BME280;7210;51.502;10.722;2023-04-07T03:06:52;99693.97;;;-1.08;99.10
14253;BME280;7210;51.502;10.722;2023-04-07T03:09:22;99695.09;;;-1.10;99.91
14253;BME280;7210;51.502;10.722;2023-04-07T03:11:49;99690.19;;;-1.13;100.00
14253;BME280;7210;51.502;10.722;2023-04-07T03:14:17;99682.06;;;-1.18;99.79
14253;BME280;7210;51.502;10.722;2023-04-07T03:16:47;99687.25;;;-1.18;100.00
14253;BME280;7210;51.502;10.722;2023-04-07T03:19:15;99685.31;;;-1.16;100.00
14253;BME280;7210;51.502;10.722;2023-04-07T03:21:45;99686.81;;;-1.14;100.00
14253;BME280;7210;51.502;10.722;2023-04-07T03:24:13;99681.75;;;-1.15;100.00
14253;BME280;7210;51.502;10.722;2023-04-07T03:26:41;99683.44;;;-1.06;100.00
14253;BME280;7210;51.502;10.722;2023-04-07T03:29:24;99685.44;;;-1.00;100.00
14253;BME280;7210;51.502;10.722;2023-04-07T03:31:52;99682.19;;;-1.02;100.00
14253;BME280;7210;51.502;10.722;2023-04-07T03:34:23;99677.97;;;-1.03;100.00
14253;BME280;7210;51.502;10.722;2023-04-07T03:36:50;99673.06;;;-1.06;100.00
14253;BME280;7210;51.502;10.722;2023-04-07T03:39:17;99674.19;;;-1.09;100.00
14253;BME280;7210;51.502;10.722;2023-04-07T03:41:46;99663.59;;;-1.15;100.00
14253;BME280;7210;51.502;10.722;2023-04-07T03:44:13;99650.22;;;-1.28;100.00
14253;BME280;7210;51.502;10.722;2023-04-07T03:46:40;99664.66;;;-1.26;100.00
14253;BME280;7210;51.502;10.722;2023-04-07T03:49:10;99653.78;;;-1.29;100.00
14253;BME280;7210;51.502;10.722;2023-04-07T03:51:37;99658.94;;;-1.29;100.00
14253;BME280;7210;51.502;10.722;2023-04-07T03:54:11;99656.00;;;-1.34;100.00
14253;BME280;7210;51.502;10.722;2023-04-07T03:56:41;99656.97;;;-1.35;100.00
14253;BME280;7210;51.502;10.722;2023-04-07T03:59:10;99651.09;;;-1.37;100.00
14253;BME280;7210;51.502;10.722;2023-04-07T04:01:48;99650.59;;;-1.41;100.00
14253;BME280;7210;51.502;10.722;2023-04-07T04:04:15;99658.81;;;-1.45;100.00
14253;BME280;7210;51.502;10.722;2023-04-07T04:06:43;99652.16;;;-1.48;100.00
14253;BME280;7210;51.502;10.722;2023-04-07T04:09:25;99658.03;;;-1.46;100.00
14253;BME280;7210;51.502;10.722;2023-04-07T04:11:52;99667.03;;;-1.50;100.00
14253;BME280;7210;51.502;10.722;2023-04-07T04:14:21;99667.88;;;-1.49;100.00
14253;BME280;7210;51.502;10.722;2023-04-07T04:16:56;99662.16;;;-1.53;100.00
14253;BME280;7210;51.502;10.722;2023-04-07T04:19:34;99666.53;;;-1.53;100.00
14253;BME280;7210;51.502;10.722;2023-04-07T04:22:10;99664.91;;;-1.54;100.00
14253;BME280;7210;51.502;10.722;2023-04-07T04:24:47;99641.00;;;-1.66;100.00
14253;BME280;7210;51.502;10.722;2023-04-07T04:27:14;99664.59;;;-1.51;100.00
14253;BME280;7210;51.502;10.722;2023-04-07T04:29:45;99668.91;;;-1.42;100.00
14253;BME280;7210;51.502;10.722;2023-04-07T04:32:16;99668.91;;;-1.42;100.00
14253;BME280;7210;51.502;10.722;2023-04-07T04:34:43;99661.59;;;-1.47;100.00
14253;BME280;7210;51.502;10.722;2023-04-07T04:37:12;99659.13;;;-1.48;100.00
14253;BME280;7210;51.502;10.722;2023-04-07T04:39:42;99657.50;;;-1.49;100.00
14253;BME280;7210;51.502;10.722;2023-04-07T04:42:12;99653.94;;;-1.48;100.00
14253;BME280;7210;51.502;10.722;2023-04-07T04:44:39;99666.47;;;-1.44;100.00
14253;BME280;7210;51.502;10.722;2023-04-07T04:47:08;99674.81;;;-1.32;100.00
14253;BME280;7210;51.502;10.722;2023-04-07T04:49:38;99671.25;;;-1.31;100.00
14253;BME280;7210;51.502;10.722;2023-04-07T04:52:06;99666.38;;;-1.34;100.00
14253;BME280;7210;51.502;10.722;2023-04-07T04:54:39;99665.09;;;-1.30;100.00
14253;BME280;7210;51.502;10.722;2023-04-07T04:57:09;99669.63;;;-1.32;100.00
14253;BME280;7210;51.502;10.722;2023-04-07T04:59:38;99675.63;;;-1.32;100.00
14253;BME280;7210;51.502;10.722;2023-04-07T05:02:08;99674.50;;;-1.29;100.00
14253;BME280;7210;51.502;10.722;2023-04-07T05:04:36;99677.47;;;-1.24;100.00
14253;BME280;7210;51.502;10.722;2023-04-07T05:07:19;99679.94;;;-1.23;100.00
14253;BME280;7210;51.502;10.722;2023-04-07T05:09:46;99671.69;;;-1.18;100.00
14253;BME280;7210;51.502;10.722;2023-04-07T05:12:15;99673.19;;;-1.16;100.00
14253;BME280;7210;51.502;10.722;2023-04-07T05:14:47;99683.44;;;-1.06;100.00
14253;BME280;7210;51.502;10.722;2023-04-07T05:17:18;99687.28;;;-0.93;100.00
14253;BME280;7210;51.502;10.722;2023-04-07T05:19:45;99688.78;;;-0.82;100.00
14253;BME280;7210;51.502;10.722;2023-04-07T05:22:22;99694.72;;;-0.72;100.00
14253;BME280;7210;51.502;10.722;2023-04-07T05:24:50;99697.09;;;-0.53;100.00
14253;BME280;7210;51.502;10.722;2023-04-07T05:27:17;99693.28;;;-0.41;100.00
14253;BME280;7210;51.502;10.722;2023-04-07T05:29:49;99694.63;;;-0.29;100.00
14253;BME280;7210;51.502;10.722;2023-04-07T05:32:27;99699.25;;;-0.08;100.00
14253;BME280;7210;51.502;10.722;2023-04-07T05:34:56;99686.97;;;0.10;100.00
14253;BME280;7210;51.502;10.722;2023-04-07T05:37:28;99687.00;;;0.26;100.00
14253;BME280;7210;51.502;10.722;2023-04-07T05:39:59;99687.22;;;0.41;100.00
14253;BME280;7210;51.502;10.722;2023-04-07T05:42:27;99675.03;;;0.49;100.00
14253;BME280;7210;51.502;10.722;2023-04-07T05:44:56;99673.41;;;0.64;100.00
14253;BME280;7210;51.502;10.722;2023-04-07T05:47:27;99652.94;;;0.69;100.00
14253;BME280;7210;51.502;10.722;2023-04-07T05:49:58;99651.81;;;0.72;100.00
14253;BME280;7210;51.502;10.722;2023-04-07T05:52:26;99641.22;;;0.73;100.00
14253;BME280;7210;51.502;10.722;2023-04-07T05:55:04;99640.91;;;0.76;100.00
14253;BME280;7210;51.502;10.722;2023-04-07T05:57:32;99641.72;;;0.77;100.00
14253;BME280;7210;51.502;10.722;2023-04-07T06:00:02;99637.47;;;0.84;100.00
14253;BME280;7210;51.502;10.722;2023-04-07T06:02:41;99633.09;;;0.84;100.00
14253;BME280;7210;51.502;10.722;2023-04-07T06:05:15;99638.66;;;0.81;100.00
14253;BME280;7210;51.502;10.722;2023-04-07T06:07:44;99632.47;;;0.82;100.00
14253;BME280;7210;51.502;10.722;2023-04-07T06:10:14;99635.22;;;0.89;100.00
14253;BME280;7210;51.502;10.722;2023-04-07T06:12:42;99636.50;;;0.93;100.00
14253;BME280;7210;51.502;10.722;2023-04-07T06:15:10;99632.25;;;1.00;100.00
14253;BME280;7210;51.502;10.722;2023-04-07T06:17:37;99635.34;;;1.11;100.00
14253;BME280;7210;51.502;10.722;2023-04-07T06:20:07;99622.97;;;1.21;100.00
14253;BME280;7210;51.502;10.722;2023-04-07T06:22:35;99633.00;;;1.32;100.00
14253;BME280;7210;51.502;10.722;2023-04-07T06:25:02;99620.78;;;1.41;99.52
14253;BME280;7210;51.502;10.722;2023-04-07T06:27:31;99629.22;;;1.51;99.35
14253;BME280;7210;51.502;10.722;2023-04-07T06:30:00;99614.88;;;1.47;99.02
14253;BME280;7210;51.502;10.722;2023-04-07T06:32:27;99626.06;;;1.63;98.30
14253;BME280;7210;51.502;10.722;2023-04-07T06:34:57;99604.13;;;1.58;97.68
14253;BME280;7210;51.502;10.722;2023-04-07T06:37:25;99590.97;;;1.51;97.08
14253;BME280;7210;51.502;10.722;2023-04-07T06:39:53;99593.56;;;1.51;96.86
14253;BME280;7210;51.502;10.722;2023-04-07T06:42:20;99597.81;;;1.52;97.12
14253;BME280;7210;51.502;10.722;2023-04-07T06:44:57;99601.03;;;1.54;97.24
14253;BME280;7210;51.502;10.722;2023-04-07T06:47:24;99616.78;;;1.61;96.50
14253;BME280;7210;51.502;10.722;2023-04-07T06:49:51;99626.38;;;1.68;96.91
14253;BME280;7210;51.502;10.722;2023-04-07T06:52:18;99611.22;;;1.72;96.19
14253;BME280;7210;51.502;10.722;2023-04-07T06:54:47;99607.44;;;1.74;96.47
14253;BME280;7210;51.502;10.722;2023-04-07T06:57:14;99618.31;;;1.86;96.41
14253;BME280;7210;51.502;10.722;2023-04-07T06:59:41;99628.84;;;2.00;96.42
14253;BME280;7210;51.502;10.722;2023-04-07T07:02:08;99640.94;;;2.16;96.32
14253;BME280;7210;51.502;10.722;2023-04-07T07:04:35;99639.88;;;2.33;96.68
14253;BME280;7210;51.502;10.722;2023-04-07T07:07:02;99659.13;;;2.54;96.54
14253;BME280;7210;51.502;10.722;2023-04-07T07:09:29;99652.16;;;2.69;96.34
14253;BME280;7210;51.502;10.722;2023-04-07T07:11:58;99647.06;;;2.76;95.72
14253;BME280;7210;51.502;10.722;2023-04-07T07:14:27;99629.25;;;2.79;95.12
14253;BME280;7210;51.502;10.722;2023-04-07T07:16:58;99626.84;;;2.92;94.33
14253;BME280;7210;51.502;10.722;2023-04-07T07:19:25;99618.25;;;3.06;93.68
14253;BME280;7210;51.502;10.722;2023-04-07T07:21:52;99613.47;;;3.24;92.74
14253;BME280;7210;51.502;10.722;2023-04-07T07:24:20;99610.69;;;3.40;92.43
14253;BME280;7210;51.502;10.722;2023-04-07T07:26:47;99603.66;;;3.55;91.75
14253;BME280;7210;51.502;10.722;2023-04-07T07:29:15;99600.72;;;3.79;90.68
14253;BME280;7210;51.502;10.722;2023-04-07T07:31:46;99576.72;;;3.90;90.00
14253;BME280;7210;51.502;10.722;2023-04-07T07:34:13;99575.50;;;4.07;89.18
14253;BME280;7210;51.502;10.722;2023-04-07T07:36:41;99545.22;;;4.19;87.93
14253;BME280;7210;51.502;10.722;2023-04-07T07:39:08;99518.94;;;4.27;87.04
14253;BME280;7210;51.502;10.722;2023-04-07T07:41:35;99517.63;;;4.37;86.57
14253;BME280;7210;51.502;10.722;2023-04-07T07:44:03;99489.88;;;4.43;85.31
14253;BME280;7210;51.502;10.722;2023-04-07T07:46:31;99471.81;;;4.48;84.37
14253;BME280;7210;51.502;10.722;2023-04-07T07:48:58;99466.66;;;4.61;83.62
14253;BME280;7210;51.502;10.722;2023-04-07T07:51:26;99476.84;;;4.77;83.43
14253;BME280;7210;51.502;10.722;2023-04-07T07:53:53;99456.50;;;4.79;82.89
14253;BME280;7210;51.502;10.722;2023-04-07T07:56:20;99449.25;;;4.81;82.36
14253;BME280;7210;51.502;10.722;2023-04-07T07:58:48;99455.09;;;4.83;82.41
14253;BME280;7210;51.502;10.722;2023-04-07T08:01:16;99527.44;;;5.18;82.48
14253;BME280;7210;51.502;10.722;2023-04-07T08:03:44;99521.47;;;5.30;81.83
14253;BME280;7210;51.502;10.722;2023-04-07T08:06:11;99495.25;;;5.37;81.38
14253;BME280;7210;51.502;10.722;2023-04-07T08:08:38;99504.63;;;5.52;81.14
14253;BME280;7210;51.502;10.722;2023-04-07T08:11:06;99505.22;;;5.61;80.49
14253;BME280;7210;51.502;10.722;2023-04-07T08:13:33;99478.03;;;5.62;80.08
14253;BME280;7210;51.502;10.722;2023-04-07T08:16:00;99480.84;;;5.67;79.83
14253;BME280;7210;51.502;10.722;2023-04-07T08:18:27;99506.75;;;5.83;79.58
14253;BME280;7210;51.502;10.722;2023-04-07T08:20:56;99497.47;;;5.87;79.60
14253;BME280;7210;51.502;10.722;2023-04-07T08:23:23;99520.13;;;6.01;79.16
14253;BME280;7210;51.502;10.722;2023-04-07T08:25:51;99540.72;;;6.17;79.34
14253;BME280;7210;51.502;10.722;2023-04-07T08:28:18;99561.75;;;6.43;78.70
14253;BME280;7210;51.502;10.722;2023-04-07T08:30:45;99567.03;;;6.56;78.00
14253;BME280;7210;51.502;10.722;2023-04-07T08:33:13;99553.25;;;6.73;77.50
14253;BME280;7210;51.502;10.722;2023-04-07T08:35:40;99515.47;;;6.81;76.72
14253;BME280;7210;51.502;10.722;2023-04-07T08:38:08;99516.69;;;6.91;76.24
14253;BME280;7210;51.502;10.722;2023-04-07T08:40:36;99513.81;;;7.06;75.87
14253;BME280;7210;51.502;10.722;2023-04-07T08:43:08;99562.47;;;7.34;75.58
14253;BME280;7210;51.502;10.722;2023-04-07T08:45:39;99522.41;;;7.38;74.70
14253;BME280;7210;51.502;10.722;2023-04-07T08:48:15;99532.88;;;7.51;74.49
14253;BME280;7210;51.502;10.722;2023-04-07T08:50:44;99577.28;;;7.79;73.90
14253;BME280;7210;51.502;10.722;2023-04-07T08:53:17;99519.34;;;7.85;73.28
14253;BME280;7210;51.502;10.722;2023-04-07T08:55:46;99479.97;;;8.03;71.93
14253;BME280;7210;51.502;10.722;2023-04-07T08:58:14;99471.84;;;8.05;71.91
14253;BME280;7210;51.502;10.722;2023-04-07T09:00:43;99476.25;;;8.17;71.11
14253;BME280;7210;51.502;10.722;2023-04-07T09:03:14;99455.91;;;8.31;70.21
14253;BME280;7210;51.502;10.722;2023-04-07T09:05:44;99429.50;;;8.37;69.52
14253;BME280;7210;51.502;10.722;2023-04-07T09:08:12;99436.38;;;8.38;69.48
14253;BME280;7210;51.502;10.722;2023-04-07T09:10:40;99459.03;;;8.39;69.75
14253;BME280;7210;51.502;10.722;2023-04-07T09:13:07;99488.09;;;8.57;69.10
14253;BME280;7210;51.502;10.722;2023-04-07T09:15:35;99461.66;;;8.64;68.64
14253;BME280;7210;51.502;10.722;2023-04-07T09:18:02;99438.19;;;8.80;67.57
14253;BME280;7210;51.502;10.722;2023-04-07T09:20:58;99415.63;;;9.02;66.41
14253;BME280;7210;51.502;10.722;2023-04-07T09:23:33;99386.56;;;9.09;65.70
14253;BME280;7210;51.502;10.722;2023-04-07T09:26:18;99398.75;;;9.21;65.09
14253;BME280;7210;51.502;10.722;2023-04-07T09:28:47;99353.63;;;9.29;63.96
14253;BME280;7210;51.502;10.722;2023-04-07T09:31:15;99306.06;;;9.47;62.51
14253;BME280;7210;51.502;10.722;2023-04-07T09:33:42;99330.28;;;9.56;62.24
14253;BME280;7210;51.502;10.722;2023-04-07T09:36:10;99339.59;;;9.58;62.25
14253;BME280;7210;51.502;10.722;2023-04-07T09:38:39;99350.84;;;9.65;62.01
14253;BME280;7210;51.502;10.722;2023-04-07T09:41:08;99393.13;;;9.77;61.99
14253;BME280;7210;51.502;10.722;2023-04-07T09:43:38;99382.25;;;9.96;60.93
14253;BME280;7210;51.502;10.722;2023-04-07T09:46:11;99357.84;;;10.12;59.96
14253;BME280;7210;51.502;10.722;2023-04-07T09:48:39;99364.47;;;10.26;59.39
14253;BME280;7210;51.502;10.722;2023-04-07T09:51:12;99382.88;;;10.44;59.08
14253;BME280;7210;51.502;10.722;2023-04-07T09:53:47;99340.31;;;10.57;57.74
14253;BME280;7210;51.502;10.722;2023-04-07T09:56:17;99326.53;;;10.55;57.75
14253;BME280;7210;51.502;10.722;2023-04-07T09:58:48;99406.75;;;10.72;58.00
14253;BME280;7210;51.502;10.722;2023-04-07T10:01:17;99350.19;;;10.73;57.25
14253;BME280;7210;51.502;10.722;2023-04-07T10:03:47;99310.41;;;10.80;56.30
14253;BME280;7210;51.502;10.722;2023-04-07T10:06:16;99309.03;;;10.77;56.32
14253;BME280;7210;51.502;10.722;2023-04-07T10:08:46;99360.50;;;10.86;56.17
14253;BME280;7210;51.502;10.722;2023-04-07T10:11:14;99354.16;;;10.87;55.99
14253;BME280;7210;51.502;10.722;2023-04-07T10:13:43;99394.50;;;10.94;55.99
14253;BME280;7210;51.502;10.722;2023-04-07T10:16:11;99383.19;;;11.10;55.16
14253;BME280;7210;51.502;10.722;2023-04-07T10:18:40;99316.00;;;11.11;53.96
14253;BME280;7210;51.502;10.722;2023-04-07T10:21:09;99303.69;;;11.17;53.46
14253;BME280;7210;51.502;10.722;2023-04-07T10:23:55;99361.28;;;11.26;53.76
14253;BME280;7210;51.502;10.722;2023-04-07T10:26:30;99346.72;;;11.40;52.56
14253;BME280;7210;51.502;10.722;2023-04-07T10:29:04;99437.38;;;11.47;53.22
14253;BME280;7210;51.502;10.722;2023-04-07T10:31:33;99407.88;;;11.55;52.28
14253;BME280;7210;51.502;10.722;2023-04-07T10:34:00;99388.31;;;11.56;52.07
14253;BME280;7210;51.502;10.722;2023-04-07T10:36:28;99301.53;;;11.58;50.38
14253;BME280;7210;51.502;10.722;2023-04-07T10:39:21;99412.94;;;11.68;51.74
14253;BME280;7210;51.502;10.722;2023-04-07T10:41:49;99430.59;;;11.79;51.15
14253;BME280;7210;51.502;10.722;2023-04-07T10:44:45;99555.28;;;11.89;52.66
14253;BME280;7210;51.502;10.722;2023-04-07T10:47:13;99567.25;;;11.91;52.64
14253;BME280;7210;51.502;10.722;2023-04-07T10:50:15;99587.28;;;11.99;52.43
14253;BME280;7210;51.502;10.722;2023-04-07T10:52:43;99610.22;;;12.05;52.21
14253;BME280;7210;51.502;10.722;2023-04-07T10:55:33;99657.50;;;12.24;52.39
14253;BME280;7210;51.502;10.722;2023-04-07T10:58:21;99680.34;;;12.42;52.04
14253;BME280;7210;51.502;10.722;2023-04-07T11:01:17;99655.19;;;12.56;51.42
14253;BME280;7210;51.502;10.722;2023-04-07T11:03:58;99614.34;;;12.57;50.97
14253;BME280;7210;51.502;10.722;2023-04-07T11:06:26;99647.50;;;12.71;50.81
14253;BME280;7210;51.502;10.722;2023-04-07T11:08:54;99550.94;;;12.72;49.70
14253;BME280;7210;51.502;10.722;2023-04-07T11:11:41;99683.28;;;12.85;51.05
14253;BME280;7210;51.502;10.722;2023-04-07T11:14:08;99672.28;;;12.93;50.87
14253;BME280;7210;51.502;10.722;2023-04-07T11:16:39;99722.34;;;13.01;50.96
14253;BME280;7210;51.502;10.722;2023-04-07T11:19:07;99601.53;;;12.98;49.97
14253;BME280;7210;51.502;10.722;2023-04-07T11:21:34;99639.44;;;13.10;49.96
14253;BME280;7210;51.502;10.722;2023-04-07T11:24:02;99664.28;;;13.21;49.97
14253;BME280;7210;51.502;10.722;2023-04-07T11:26:29;99624.31;;;13.27;48.92
14253;BME280;7210;51.502;10.722;2023-04-07T11:29:04;99582.78;;;13.38;45.33
14253;BME280;7210;51.502;10.722;2023-04-07T11:31:31;99645.47;;;13.39;47.04
14253;BME280;7210;51.502;10.722;2023-04-07T11:34:00;99690.66;;;13.44;47.44
14253;BME280;7210;51.502;10.722;2023-04-07T11:36:30;99673.03;;;13.54;49.11
14253;BME280;7210;51.502;10.722;2023-04-07T11:38:59;99604.34;;;13.63;47.66
14253;BME280;7210;51.502;10.722;2023-04-07T11:41:29;99549.53;;;13.78;46.48
14253;BME280;7210;51.502;10.722;2023-04-07T11:44:06;99508.38;;;13.81;46.09
14253;BME280;7210;51.502;10.722;2023-04-07T11:46:35;99532.91;;;13.88;46.36
14253;BME280;7210;51.502;10.722;2023-04-07T11:49:11;99582.34;;;13.89;47.09
14253;BME280;7210;51.502;10.722;2023-04-07T11:51:41;99508.44;;;13.86;46.35
14253;BME280;7210;51.502;10.722;2023-04-07T11:54:08;99436.69;;;13.86;44.70
14253;BME280;7210;51.502;10.722;2023-04-07T11:56:44;99541.66;;;14.10;45.51
14253;BME280;7210;51.502;10.722;2023-04-07T11:59:24;99498.13;;;14.16;44.97
14253;BME280;7210;51.502;10.722;2023-04-07T12:01:52;99545.28;;;14.25;45.22
14253;BME280;7210;51.502;10.722;2023-04-07T12:04:19;99496.69;;;14.30;44.44
14253;BME280;7210;51.502;10.722;2023-04-07T12:06:47;99517.00;;;14.41;44.26
14253;BME280;7210;51.502;10.722;2023-04-07T12:09:27;99486.66;;;14.42;44.15
14253;BME280;7210;51.502;10.722;2023-04-07T12:11:55;99493.66;;;14.53;43.54
14253;BME280;7210;51.502;10.722;2023-04-07T12:14:25;99578.44;;;14.71;44.17
14253;BME280;7210;51.502;10.722;2023-04-07T12:16:53;99654.13;;;14.80;45.00
14253;BME280;7210;51.502;10.722;2023-04-07T12:19:22;99362.31;;;14.64;41.81
14253;BME280;7210;51.502;10.722;2023-04-07T12:21:50;99345.66;;;14.88;40.65
14253;BME280;7210;51.502;10.722;2023-04-07T12:24:17;99299.00;;;14.76;40.69
14253;BME280;7210;51.502;10.722;2023-04-07T12:26:44;99465.28;;;15.05;42.08
14253;BME280;7210;51.502;10.722;2023-04-07T12:29:11;99414.97;;;15.03;41.82
14253;BME280;7210;51.502;10.722;2023-04-07T12:31:40;99345.72;;;15.03;40.72
14253;BME280;7210;51.502;10.722;2023-04-07T12:34:07;99461.03;;;15.09;42.12
14253;BME280;7210;51.502;10.722;2023-04-07T12:36:34;99467.47;;;15.18;41.47
14253;BME280;7210;51.502;10.722;2023-04-07T12:39:01;99296.69;;;14.89;40.83
14253;BME280;7210;51.502;10.722;2023-04-07T12:41:29;99369.94;;;15.07;39.51
14253;BME280;7210;51.502;10.722;2023-04-07T12:43:57;99422.47;;;15.21;40.87
14253;BME280;7210;51.502;10.722;2023-04-07T12:46:24;99489.88;;;15.26;41.63
14253;BME280;7210;51.502;10.722;2023-04-07T12:48:53;99634.84;;;15.30;43.18
14253;BME280;7210;51.502;10.722;2023-04-07T12:51:20;99627.03;;;15.55;42.19
14253;BME280;7210;51.502;10.722;2023-04-07T12:53:47;99535.41;;;15.61;40.93
14253;BME280;7210;51.502;10.722;2023-04-07T12:56:14;99350.34;;;15.32;39.82
14253;BME280;7210;51.502;10.722;2023-04-07T12:58:41;99523.03;;;15.40;41.80
14253;BME280;7210;51.502;10.722;2023-04-07T13:01:10;99447.88;;;15.33;41.11
14253;BME280;7210;51.502;10.722;2023-04-07T13:03:37;99590.13;;;15.32;42.75
14253;BME280;7210;51.502;10.722;2023-04-07T13:06:06;99567.69;;;15.28;42.25
14253;BME280;7210;51.502;10.722;2023-04-07T13:08:33;99561.47;;;15.59;41.08
14253;BME280;7210;51.502;10.722;2023-04-07T13:11:04;99474.66;;;15.83;39.29
14253;BME280;7210;51.502;10.722;2023-04-07T13:13:32;99405.31;;;15.63;39.67
14253;BME280;7210;51.502;10.722;2023-04-07T13:15:59;99409.59;;;15.79;39.16
14253;BME280;7210;51.502;10.722;2023-04-07T13:18:27;99458.44;;;15.90;39.48
14253;BME280;7210;51.502;10.722;2023-04-07T13:20:54;99417.09;;;15.77;39.75